sensor_id;sensor_type;location;lat;lon;timestamp;P1;durP1;ratioP1;P2;durP2;ratioP2
41275;SDS011;27010;47.718;12.912;2022-07-23T00:01:39;2.65;;;1.88;;
41275;SDS011;27010;47.718;12.912;2022-07-23T00:04:42;2.33;;;2.13;;
41275;SDS011;27010;47.718;12.912;2022-07-23T00:07:44;1.80;;;1.70;;
41275;SDS011;27010;47.718;12.912;2022-07-23T00:10:47;2.37;;;2.10;;
41275;SDS011;27010;47.718;12.912;2022-07-23T00:13:49;2.55;;;1.92;;
41275;SDS011;27010;47.718;12.912;2022-07-23T00:16:51;3.03;;;2.40;;
41275;SDS011;27010;47.718;12.912;2022-07-23T00:19:54;2.22;;;2.00;;
41275;SDS011;27010;47.718;12.912;2022-07-23T00:22:56;3.47;;;2.67;;
41275;SDS011;27010;47.718;12.912;2022-07-23T00:25:58;2.50;;;2.30;;
41275;SDS011;27010;47.718;12.912;2022-07-23T00:29:00;2.30;;;1.98;;
41275;SDS011;27010;47.718;12.912;2022-07-23T00:32:03;2.03;;;1.83;;
41275;SDS011;27010;47.718;12.912;2022-07-23T00:35:05;2.10;;;1.90;;
41275;SDS011;27010;47.718;12.912;2022-07-23T00:38:08;2.05;;;1.95;;
41275;SDS011;27010;47.718;12.912;2022-07-23T00:41:11;2.28;;;1.80;;
41275;SDS011;27010;47.718;12.912;2022-07-23T00:44:20;2.00;;;1.80;;
41275;SDS011;27010;47.718;12.912;2022-07-23T00:47:24;2.33;;;2.13;;
41275;SDS011;27010;47.718;12.912;2022-07-23T00:50:26;2.05;;;1.85;;
41275;SDS011;27010;47.718;12.912;2022-07-23T00:53:29;3.00;;;1.50;;
41275;SDS011;27010;47.718;12.912;2022-07-23T00:56:33;2.57;;;2.37;;
41275;SDS011;27010;47.718;12.912;2022-07-23T00:59:34;2.20;;;2.00;;
41275;SDS011;27010;47.718;12.912;2022-07-23T01:02:37;1.60;;;1.50;;
41275;SDS011;27010;47.718;12.912;2022-07-23T01:05:39;1.63;;;1.53;;
41275;SDS011;27010;47.718;12.912;2022-07-23T01:08:41;2.33;;;1.70;;
41275;SDS011;27010;47.718;12.912;2022-07-23T01:11:44;2.83;;;1.70;;
41275;SDS011;27010;47.718;12.912;2022-07-23T01:14:56;3.37;;;2.10;;
41275;SDS011;27010;47.718;12.912;2022-07-23T01:17:59;1.70;;;1.60;;
41275;SDS011;27010;47.718;12.912;2022-07-23T01:21:02;3.75;;;1.80;;
41275;SDS011;27010;47.718;12.912;2022-07-23T01:24:04;2.70;;;2.08;;
41275;SDS011;27010;47.718;12.912;2022-07-23T01:27:07;2.27;;;1.90;;
41275;SDS011;27010;47.718;12.912;2022-07-23T01:30:09;1.80;;;1.70;;
41275;SDS011;27010;47.718;12.912;2022-07-23T01:33:12;2.03;;;1.52;;
41275;SDS011;27010;47.718;12.912;2022-07-23T01:36:14;2.78;;;1.75;;
41275;SDS011;27010;47.718;12.912;2022-07-23T01:39:16;1.83;;;1.58;;
41275;SDS011;27010;47.718;12.912;2022-07-23T01:42:19;4.15;;;2.00;;
41275;SDS011;27010;47.718;12.912;2022-07-23T01:45:22;2.00;;;1.80;;
41275;SDS011;27010;47.718;12.912;2022-07-23T01:48:24;1.98;;;1.75;;
41275;SDS011;27010;47.718;12.912;2022-07-23T01:51:26;2.28;;;2.05;;
41275;SDS011;27010;47.718;12.912;2022-07-23T01:54:29;2.20;;;2.00;;
41275;SDS011;27010;47.718;12.912;2022-07-23T01:57:33;1.90;;;1.70;;
41275;SDS011;27010;47.718;12.912;2022-07-23T02:00:35;2.05;;;1.80;;
41275;SDS011;27010;47.718;12.912;2022-07-23T02:03:37;3.05;;;1.95;;
41275;SDS011;27010;47.718;12.912;2022-07-23T02:06:39;2.08;;;1.83;;
41275;SDS011;27010;47.718;12.912;2022-07-23T02:09:41;2.28;;;2.08;;
41275;SDS011;27010;47.718;12.912;2022-07-23T02:12:43;1.70;;;1.60;;
41275;SDS011;27010;47.718;12.912;2022-07-23T02:15:46;2.67;;;1.90;;
41275;SDS011;27010;47.718;12.912;2022-07-23T02:18:49;2.10;;;1.90;;
41275;SDS011;27010;47.718;12.912;2022-07-23T02:21:52;1.83;;;1.73;;
41275;SDS011;27010;47.718;12.912;2022-07-23T02:24:56;2.30;;;2.10;;
41275;SDS011;27010;47.718;12.912;2022-07-23T02:27:58;2.10;;;1.90;;
41275;SDS011;27010;47.718;12.912;2022-07-23T02:31:00;2.30;;;2.10;;
41275;SDS011;27010;47.718;12.912;2022-07-23T02:34:03;3.13;;;1.70;;
41275;SDS011;27010;47.718;12.912;2022-07-23T02:37:05;2.67;;;2.40;;
41275;SDS011;27010;47.718;12.912;2022-07-23T02:40:07;3.55;;;2.30;;
41275;SDS011;27010;47.718;12.912;2022-07-23T02:43:09;2.05;;;1.90;;
41275;SDS011;27010;47.718;12.912;2022-07-23T02:46:11;2.40;;;1.88;;
41275;SDS011;27010;47.718;12.912;2022-07-23T02:49:13;2.33;;;1.90;;
41275;SDS011;27010;47.718;12.912;2022-07-23T02:52:15;2.50;;;2.23;;
41275;SDS011;27010;47.718;12.912;2022-07-23T02:55:18;2.35;;;1.90;;
41275;SDS011;27010;47.718;12.912;2022-07-23T02:58:20;2.80;;;2.20;;
41275;SDS011;27010;47.718;12.912;2022-07-23T03:01:22;2.55;;;2.35;;
41275;SDS011;27010;47.718;12.912;2022-07-23T03:04:25;2.50;;;2.30;;
41275;SDS011;27010;47.718;12.912;2022-07-23T03:07:27;3.13;;;2.83;;
41275;SDS011;27010;47.718;12.912;2022-07-23T03:10:29;3.08;;;2.72;;
41275;SDS011;27010;47.718;12.912;2022-07-23T03:13:30;3.83;;;2.90;;
41275;SDS011;27010;47.718;12.912;2022-07-23T03:16:36;3.05;;;2.70;;
41275;SDS011;27010;47.718;12.912;2022-07-23T03:19:38;3.00;;;2.80;;
41275;SDS011;27010;47.718;12.912;2022-07-23T03:22:40;3.42;;;2.47;;
41275;SDS011;27010;47.718;12.912;2022-07-23T03:25:42;3.08;;;2.78;;
41275;SDS011;27010;47.718;12.912;2022-07-23T03:28:44;2.58;;;2.38;;
41275;SDS011;27010;47.718;12.912;2022-07-23T03:31:46;2.85;;;2.58;;
41275;SDS011;27010;47.718;12.912;2022-07-23T03:34:48;3.53;;;2.72;;
41275;SDS011;27010;47.718;12.912;2022-07-23T03:37:50;3.13;;;2.78;;
41275;SDS011;27010;47.718;12.912;2022-07-23T03:40:53;4.70;;;3.15;;
41275;SDS011;27010;47.718;12.912;2022-07-23T03:43:56;3.07;;;2.80;;
41275;SDS011;27010;47.718;12.912;2022-07-23T03:47:00;4.72;;;3.20;;
41275;SDS011;27010;47.718;12.912;2022-07-23T03:50:05;4.75;;;3.13;;
41275;SDS011;27010;47.718;12.912;2022-07-23T03:53:08;3.75;;;3.35;;
41275;SDS011;27010;47.718;12.912;2022-07-23T03:56:10;4.60;;;3.43;;
41275;SDS011;27010;47.718;12.912;2022-07-23T03:59:12;4.28;;;3.22;;
41275;SDS011;27010;47.718;12.912;2022-07-23T04:02:14;6.17;;;3.03;;
41275;SDS011;27010;47.718;12.912;2022-07-23T04:05:16;3.42;;;3.13;;
41275;SDS011;27010;47.718;12.912;2022-07-23T04:08:18;4.75;;;3.42;;
41275;SDS011;27010;47.718;12.912;2022-07-23T04:11:19;5.47;;;3.17;;
41275;SDS011;27010;47.718;12.912;2022-07-23T04:14:21;3.92;;;3.53;;
41275;SDS011;27010;47.718;12.912;2022-07-23T04:17:23;4.10;;;3.70;;
41275;SDS011;27010;47.718;12.912;2022-07-23T04:20:25;4.18;;;3.65;;
41275;SDS011;27010;47.718;12.912;2022-07-23T04:23:27;5.80;;;4.30;;
41275;SDS011;27010;47.718;12.912;2022-07-23T04:26:29;6.13;;;3.30;;
41275;SDS011;27010;47.718;12.912;2022-07-23T04:29:31;4.20;;;3.80;;
41275;SDS011;27010;47.718;12.912;2022-07-23T04:32:33;14.93;;;3.90;;
41275;SDS011;27010;47.718;12.912;2022-07-23T04:35:35;3.65;;;3.30;;
41275;SDS011;27010;47.718;12.912;2022-07-23T04:38:38;3.15;;;2.72;;
41275;SDS011;27010;47.718;12.912;2022-07-23T04:41:40;4.47;;;2.67;;
41275;SDS011;27010;47.718;12.912;2022-07-23T04:44:42;6.47;;;2.95;;
41275;SDS011;27010;47.718;12.912;2022-07-23T04:47:44;4.47;;;3.00;;
41275;SDS011;27010;47.718;12.912;2022-07-23T04:50:47;4.20;;;3.47;;
41275;SDS011;27010;47.718;12.912;2022-07-23T04:53:49;5.80;;;3.67;;
41275;SDS011;27010;47.718;12.912;2022-07-23T04:56:51;3.95;;;3.35;;
41275;SDS011;27010;47.718;12.912;2022-07-23T04:59:53;4.05;;;3.28;;
41275;SDS011;27010;47.718;12.912;2022-07-23T05:02:55;3.67;;;3.30;;
41275;SDS011;27010;47.718;12.912;2022-07-23T05:05:58;3.40;;;2.97;;
41275;SDS011;27010;47.718;12.912;2022-07-23T05:09:00;3.55;;;3.25;;
41275;SDS011;27010;47.718;12.912;2022-07-23T05:12:02;3.65;;;3.13;;
41275;SDS011;27010;47.718;12.912;2022-07-23T05:15:05;5.32;;;3.72;;
41275;SDS011;27010;47.718;12.912;2022-07-23T05:18:07;4.15;;;3.70;;
41275;SDS011;27010;47.718;12.912;2022-07-23T05:21:09;3.90;;;3.50;;
41275;SDS011;27010;47.718;12.912;2022-07-23T05:24:11;4.28;;;3.28;;
41275;SDS011;27010;47.718;12.912;2022-07-23T05:27:14;3.65;;;3.25;;
41275;SDS011;27010;47.718;12.912;2022-07-23T05:30:16;4.13;;;2.80;;
41275;SDS011;27010;47.718;12.912;2022-07-23T05:33:19;3.58;;;3.28;;
41275;SDS011;27010;47.718;12.912;2022-07-23T05:36:21;4.10;;;3.80;;
41275;SDS011;27010;47.718;12.912;2022-07-23T05:39:23;4.72;;;3.65;;
41275;SDS011;27010;47.718;12.912;2022-07-23T05:42:25;4.72;;;4.03;;
41275;SDS011;27010;47.718;12.912;2022-07-23T05:45:27;4.55;;;4.07;;
41275;SDS011;27010;47.718;12.912;2022-07-23T05:48:29;3.97;;;3.60;;
41275;SDS011;27010;47.718;12.912;2022-07-23T05:51:31;5.63;;;4.10;;
41275;SDS011;27010;47.718;12.912;2022-07-23T05:54:36;4.63;;;4.20;;
41275;SDS011;27010;47.718;12.912;2022-07-23T05:57:38;4.63;;;3.97;;
41275;SDS011;27010;47.718;12.912;2022-07-23T06:00:41;4.45;;;3.85;;
41275;SDS011;27010;47.718;12.912;2022-07-23T06:03:43;5.80;;;3.75;;
41275;SDS011;27010;47.718;12.912;2022-07-23T06:06:45;4.63;;;4.00;;
41275;SDS011;27010;47.718;12.912;2022-07-23T06:09:47;6.07;;;3.83;;
41275;SDS011;27010;47.718;12.912;2022-07-23T06:12:50;6.78;;;4.03;;
41275;SDS011;27010;47.718;12.912;2022-07-23T06:15:52;4.88;;;3.80;;
41275;SDS011;27010;47.718;12.912;2022-07-23T06:18:55;5.35;;;4.05;;
41275;SDS011;27010;47.718;12.912;2022-07-23T06:21:56;5.68;;;4.70;;
41275;SDS011;27010;47.718;12.912;2022-07-23T06:24:59;6.00;;;3.80;;
41275;SDS011;27010;47.718;12.912;2022-07-23T06:28:01;4.50;;;3.72;;
41275;SDS011;27010;47.718;12.912;2022-07-23T06:31:03;4.97;;;4.10;;
41275;SDS011;27010;47.718;12.912;2022-07-23T06:34:05;4.88;;;4.35;;
41275;SDS011;27010;47.718;12.912;2022-07-23T06:37:11;5.18;;;3.70;;
41275;SDS011;27010;47.718;12.912;2022-07-23T06:40:15;4.68;;;4.18;;
41275;SDS011;27010;47.718;12.912;2022-07-23T06:43:17;5.90;;;4.45;;
41275;SDS011;27010;47.718;12.912;2022-07-23T06:46:19;5.20;;;4.15;;
41275;SDS011;27010;47.718;12.912;2022-07-23T06:49:22;4.68;;;4.25;;
41275;SDS011;27010;47.718;12.912;2022-07-23T06:52:25;4.32;;;3.78;;
41275;SDS011;27010;47.718;12.912;2022-07-23T06:55:28;4.50;;;4.03;;
41275;SDS011;27010;47.718;12.912;2022-07-23T06:58:29;3.90;;;3.42;;
41275;SDS011;27010;47.718;12.912;2022-07-23T07:01:31;5.60;;;4.13;;
41275;SDS011;27010;47.718;12.912;2022-07-23T07:04:33;6.32;;;4.13;;
41275;SDS011;27010;47.718;12.912;2022-07-23T07:07:36;4.18;;;3.78;;
41275;SDS011;27010;47.718;12.912;2022-07-23T07:10:38;4.00;;;3.17;;
41275;SDS011;27010;47.718;12.912;2022-07-23T07:13:40;4.07;;;3.67;;
41275;SDS011;27010;47.718;12.912;2022-07-23T07:16:42;4.30;;;3.90;;
41275;SDS011;27010;47.718;12.912;2022-07-23T07:19:44;4.20;;;3.80;;
41275;SDS011;27010;47.718;12.912;2022-07-23T07:22:46;5.38;;;3.90;;
41275;SDS011;27010;47.718;12.912;2022-07-23T07:25:48;6.70;;;4.32;;
41275;SDS011;27010;47.718;12.912;2022-07-23T07:28:50;4.65;;;4.15;;
41275;SDS011;27010;47.718;12.912;2022-07-23T07:31:52;5.57;;;4.60;;
41275;SDS011;27010;47.718;12.912;2022-07-23T07:34:54;4.60;;;4.13;;
41275;SDS011;27010;47.718;12.912;2022-07-23T07:37:56;5.15;;;3.97;;
41275;SDS011;27010;47.718;12.912;2022-07-23T07:40:58;4.53;;;4.10;;
41275;SDS011;27010;47.718;12.912;2022-07-23T07:44:00;5.07;;;3.45;;
41275;SDS011;27010;47.718;12.912;2022-07-23T07:47:03;5.93;;;3.83;;
41275;SDS011;27010;47.718;12.912;2022-07-23T07:50:05;4.35;;;3.95;;
41275;SDS011;27010;47.718;12.912;2022-07-23T07:53:10;4.63;;;3.75;;
41275;SDS011;27010;47.718;12.912;2022-07-23T07:56:12;3.90;;;3.50;;
41275;SDS011;27010;47.718;12.912;2022-07-23T07:59:16;4.88;;;3.92;;
41275;SDS011;27010;47.718;12.912;2022-07-23T08:05:57;4.25;;;3.83;;
41275;SDS011;27010;47.718;12.912;2022-07-23T08:09:13;5.75;;;3.85;;
41275;SDS011;27010;47.718;12.912;2022-07-23T08:12:15;8.30;;;4.38;;
41275;SDS011;27010;47.718;12.912;2022-07-23T08:15:19;4.53;;;3.95;;
41275;SDS011;27010;47.718;12.912;2022-07-23T08:18:22;4.38;;;3.97;;
41275;SDS011;27010;47.718;12.912;2022-07-23T08:21:24;4.35;;;3.95;;
41275;SDS011;27010;47.718;12.912;2022-07-23T08:24:26;5.55;;;4.28;;
41275;SDS011;27010;47.718;12.912;2022-07-23T08:27:31;4.97;;;4.10;;
41275;SDS011;27010;47.718;12.912;2022-07-23T08:30:38;4.88;;;3.75;;
41275;SDS011;27010;47.718;12.912;2022-07-23T08:33:41;4.03;;;3.63;;
41275;SDS011;27010;47.718;12.912;2022-07-23T08:36:43;5.53;;;3.38;;
41275;SDS011;27010;47.718;12.912;2022-07-23T08:39:45;4.95;;;3.83;;
41275;SDS011;27010;47.718;12.912;2022-07-23T08:42:48;4.43;;;4.03;;
41275;SDS011;27010;47.718;12.912;2022-07-23T08:45:53;3.80;;;3.50;;
41275;SDS011;27010;47.718;12.912;2022-07-23T08:49:01;5.10;;;3.72;;
41275;SDS011;27010;47.718;12.912;2022-07-23T08:52:04;7.03;;;4.57;;
41275;SDS011;27010;47.718;12.912;2022-07-23T08:55:07;3.97;;;3.42;;
41275;SDS011;27010;47.718;12.912;2022-07-23T08:58:10;4.35;;;3.95;;
41275;SDS011;27010;47.718;12.912;2022-07-23T09:01:12;4.10;;;3.70;;
41275;SDS011;27010;47.718;12.912;2022-07-23T09:04:15;3.75;;;3.45;;
41275;SDS011;27010;47.718;12.912;2022-07-23T09:07:17;4.95;;;3.78;;
41275;SDS011;27010;47.718;12.912;2022-07-23T09:10:20;3.63;;;3.33;;
41275;SDS011;27010;47.718;12.912;2022-07-23T09:16:40;4.40;;;4.00;;
41275;SDS011;27010;47.718;12.912;2022-07-23T09:19:43;5.28;;;3.72;;
41275;SDS011;27010;47.718;12.912;2022-07-23T09:22:46;3.80;;;3.50;;
41275;SDS011;27010;47.718;12.912;2022-07-23T09:25:49;4.30;;;3.90;;
41275;SDS011;27010;47.718;12.912;2022-07-23T09:29:04;4.22;;;3.53;;
41275;SDS011;27010;47.718;12.912;2022-07-23T09:32:07;3.80;;;3.35;;
41275;SDS011;27010;47.718;12.912;2022-07-23T09:35:15;3.95;;;3.45;;
41275;SDS011;27010;47.718;12.912;2022-07-23T09:38:18;3.85;;;3.55;;
41275;SDS011;27010;47.718;12.912;2022-07-23T09:41:22;8.55;;;4.00;;
41275;SDS011;27010;47.718;12.912;2022-07-23T09:44:25;10.15;;;4.97;;
41275;SDS011;27010;47.718;12.912;2022-07-23T09:47:30;4.53;;;3.97;;
41275;SDS011;27010;47.718;12.912;2022-07-23T09:50:33;6.38;;;4.18;;
41275;SDS011;27010;47.718;12.912;2022-07-23T09:53:35;4.63;;;4.10;;
41275;SDS011;27010;47.718;12.912;2022-07-23T09:56:37;3.78;;;3.45;;
41275;SDS011;27010;47.718;12.912;2022-07-23T09:59:40;4.13;;;3.72;;
41275;SDS011;27010;47.718;12.912;2022-07-23T10:02:43;3.60;;;3.17;;
41275;SDS011;27010;47.718;12.912;2022-07-23T10:05:47;4.18;;;3.78;;
41275;SDS011;27010;47.718;12.912;2022-07-23T10:08:49;5.70;;;3.75;;
41275;SDS011;27010;47.718;12.912;2022-07-23T10:11:53;5.32;;;3.40;;
41275;SDS011;27010;47.718;12.912;2022-07-23T10:14:59;3.90;;;3.47;;
41275;SDS011;27010;47.718;12.912;2022-07-23T10:18:01;3.80;;;3.50;;
41275;SDS011;27010;47.718;12.912;2022-07-23T10:21:05;6.95;;;3.72;;
41275;SDS011;27010;47.718;12.912;2022-07-23T10:34:44;3.75;;;3.45;;
41275;SDS011;27010;47.718;12.912;2022-07-23T10:37:55;4.05;;;3.65;;
41275;SDS011;27010;47.718;12.912;2022-07-23T10:41:00;3.85;;;3.53;;
41275;SDS011;27010;47.718;12.912;2022-07-23T10:44:07;4.40;;;3.53;;
41275;SDS011;27010;47.718;12.912;2022-07-23T10:47:21;4.63;;;3.17;;
41275;SDS011;27010;47.718;12.912;2022-07-23T10:50:30;3.67;;;3.38;;
41275;SDS011;27010;47.718;12.912;2022-07-23T11:03:27;3.88;;;2.95;;
41275;SDS011;27010;47.718;12.912;2022-07-23T11:07:16;3.95;;;3.30;;
41275;SDS011;27010;47.718;12.912;2022-07-23T11:09:52;3.40;;;3.15;;
41275;SDS011;27010;47.718;12.912;2022-07-23T11:12:55;3.45;;;3.15;;
41275;SDS011;27010;47.718;12.912;2022-07-23T11:19:16;4.55;;;3.47;;
41275;SDS011;27010;47.718;12.912;2022-07-23T11:22:33;3.50;;;3.20;;
41275;SDS011;27010;47.718;12.912;2022-07-23T11:25:38;3.97;;;3.42;;
41275;SDS011;27010;47.718;12.912;2022-07-23T11:28:41;3.60;;;3.25;;
41275;SDS011;27010;47.718;12.912;2022-07-23T11:31:56;3.17;;;2.97;;
41275;SDS011;27010;47.718;12.912;2022-07-23T11:35:24;4.50;;;3.10;;
41275;SDS011;27010;47.718;12.912;2022-07-23T11:38:30;3.83;;;3.30;;
41275;SDS011;27010;47.718;12.912;2022-07-23T11:41:43;4.15;;;3.13;;
41275;SDS011;27010;47.718;12.912;2022-07-23T11:44:46;3.38;;;3.17;;
41275;SDS011;27010;47.718;12.912;2022-07-23T11:47:50;3.80;;;3.35;;
41275;SDS011;27010;47.718;12.912;2022-07-23T11:50:52;4.32;;;2.83;;
41275;SDS011;27010;47.718;12.912;2022-07-23T11:53:55;3.75;;;3.45;;
41275;SDS011;27010;47.718;12.912;2022-07-23T11:57:07;3.30;;;2.95;;
41275;SDS011;27010;47.718;12.912;2022-07-23T12:00:14;4.55;;;4.10;;
41275;SDS011;27010;47.718;12.912;2022-07-23T12:03:19;3.78;;;3.40;;
41275;SDS011;27010;47.718;12.912;2022-07-23T12:06:21;3.80;;;3.50;;
41275;SDS011;27010;47.718;12.912;2022-07-23T12:09:24;3.60;;;3.30;;
41275;SDS011;27010;47.718;12.912;2022-07-23T12:12:26;4.07;;;3.67;;
41275;SDS011;27010;47.718;12.912;2022-07-23T12:15:30;4.18;;;3.78;;
41275;SDS011;27010;47.718;12.912;2022-07-23T12:18:39;4.20;;;3.80;;
41275;SDS011;27010;47.718;12.912;2022-07-23T12:21:41;5.65;;;3.80;;
41275;SDS011;27010;47.718;12.912;2022-07-23T12:28:11;6.97;;;4.00;;
41275;SDS011;27010;47.718;12.912;2022-07-23T12:31:24;4.47;;;3.70;;
41275;SDS011;27010;47.718;12.912;2022-07-23T12:34:27;4.63;;;3.65;;
41275;SDS011;27010;47.718;12.912;2022-07-23T12:37:33;4.20;;;3.80;;
41275;SDS011;27010;47.718;12.912;2022-07-23T12:43:45;7.35;;;3.70;;
41275;SDS011;27010;47.718;12.912;2022-07-23T12:46:52;7.47;;;3.55;;
41275;SDS011;27010;47.718;12.912;2022-07-23T12:49:54;3.88;;;3.38;;
41275;SDS011;27010;47.718;12.912;2022-07-23T12:53:07;3.50;;;3.20;;
41275;SDS011;27010;47.718;12.912;2022-07-23T12:56:30;3.47;;;3.15;;
41275;SDS011;27010;47.718;12.912;2022-07-23T12:59:34;3.67;;;3.28;;
41275;SDS011;27010;47.718;12.912;2022-07-23T13:02:45;3.65;;;3.35;;
41275;SDS011;27010;47.718;12.912;2022-07-23T13:05:48;3.90;;;3.10;;
41275;SDS011;27010;47.718;12.912;2022-07-23T13:08:51;4.07;;;3.58;;
41275;SDS011;27010;47.718;12.912;2022-07-23T13:11:54;4.20;;;3.17;;
41275;SDS011;27010;47.718;12.912;2022-07-23T13:14:57;5.40;;;3.72;;
41275;SDS011;27010;47.718;12.912;2022-07-23T13:17:59;4.28;;;3.17;;
41275;SDS011;27010;47.718;12.912;2022-07-23T13:21:03;6.00;;;2.78;;
41275;SDS011;27010;47.718;12.912;2022-07-23T13:24:07;4.20;;;3.00;;
41275;SDS011;27010;47.718;12.912;2022-07-23T13:27:10;4.60;;;3.08;;
41275;SDS011;27010;47.718;12.912;2022-07-23T13:30:32;4.97;;;3.13;;
41275;SDS011;27010;47.718;12.912;2022-07-23T13:33:34;3.78;;;3.10;;
41275;SDS011;27010;47.718;12.912;2022-07-23T13:36:37;6.00;;;3.20;;
41275;SDS011;27010;47.718;12.912;2022-07-23T13:39:39;5.70;;;3.38;;
41275;SDS011;27010;47.718;12.912;2022-07-23T13:42:43;4.75;;;3.35;;
41275;SDS011;27010;47.718;12.912;2022-07-23T13:45:46;3.58;;;3.25;;
41275;SDS011;27010;47.718;12.912;2022-07-23T13:48:48;7.13;;;3.47;;
41275;SDS011;27010;47.718;12.912;2022-07-23T13:51:50;5.50;;;3.45;;
41275;SDS011;27010;47.718;12.912;2022-07-23T13:54:53;5.85;;;3.40;;
41275;SDS011;27010;47.718;12.912;2022-07-23T13:57:55;7.65;;;3.60;;
41275;SDS011;27010;47.718;12.912;2022-07-23T14:00:57;3.92;;;2.83;;
41275;SDS011;27010;47.718;12.912;2022-07-23T14:03:59;6.05;;;3.40;;
41275;SDS011;27010;47.718;12.912;2022-07-23T14:07:01;4.82;;;3.38;;
41275;SDS011;27010;47.718;12.912;2022-07-23T14:10:05;5.32;;;3.55;;
41275;SDS011;27010;47.718;12.912;2022-07-23T14:13:08;4.88;;;3.15;;
41275;SDS011;27010;47.718;12.912;2022-07-23T14:16:10;7.28;;;3.45;;
41275;SDS011;27010;47.718;12.912;2022-07-23T14:19:12;5.50;;;3.10;;
41275;SDS011;27010;47.718;12.912;2022-07-23T14:22:15;6.40;;;3.58;;
41275;SDS011;27010;47.718;12.912;2022-07-23T14:25:17;4.93;;;3.60;;
41275;SDS011;27010;47.718;12.912;2022-07-23T14:28:19;6.63;;;3.50;;
41275;SDS011;27010;47.718;12.912;2022-07-23T14:31:21;4.05;;;3.55;;
41275;SDS011;27010;47.718;12.912;2022-07-23T14:34:24;3.80;;;3.40;;
41275;SDS011;27010;47.718;12.912;2022-07-23T14:37:28;3.65;;;3.00;;
41275;SDS011;27010;47.718;12.912;2022-07-23T14:40:32;5.35;;;3.97;;
41275;SDS011;27010;47.718;12.912;2022-07-23T14:43:34;3.33;;;2.80;;
41275;SDS011;27010;47.718;12.912;2022-07-23T14:46:39;5.95;;;4.00;;
41275;SDS011;27010;47.718;12.912;2022-07-23T14:49:41;4.00;;;3.08;;
41275;SDS011;27010;47.718;12.912;2022-07-23T14:52:48;5.32;;;3.40;;
41275;SDS011;27010;47.718;12.912;2022-07-23T14:55:50;3.75;;;2.78;;
41275;SDS011;27010;47.718;12.912;2022-07-23T14:58:52;4.32;;;2.95;;
41275;SDS011;27010;47.718;12.912;2022-07-23T15:01:57;3.78;;;3.22;;
41275;SDS011;27010;47.718;12.912;2022-07-23T15:04:59;4.07;;;3.00;;
41275;SDS011;27010;47.718;12.912;2022-07-23T15:08:07;3.47;;;3.17;;
41275;SDS011;27010;47.718;12.912;2022-07-23T15:11:10;3.40;;;3.00;;
41275;SDS011;27010;47.718;12.912;2022-07-23T15:14:12;3.60;;;3.17;;
41275;SDS011;27010;47.718;12.912;2022-07-23T15:17:28;3.05;;;2.75;;
41275;SDS011;27010;47.718;12.912;2022-07-23T15:20:30;4.10;;;3.00;;
41275;SDS011;27010;47.718;12.912;2022-07-23T15:23:38;4.03;;;3.22;;
41275;SDS011;27010;47.718;12.912;2022-07-23T15:26:42;4.50;;;3.05;;
41275;SDS011;27010;47.718;12.912;2022-07-23T15:29:44;4.25;;;3.20;;
41275;SDS011;27010;47.718;12.912;2022-07-23T15:32:46;5.68;;;4.13;;
41275;SDS011;27010;47.718;12.912;2022-07-23T15:35:49;5.57;;;3.67;;
41275;SDS011;27010;47.718;12.912;2022-07-23T15:38:51;5.07;;;3.28;;
41275;SDS011;27010;47.718;12.912;2022-07-23T15:41:53;4.13;;;3.58;;
41275;SDS011;27010;47.718;12.912;2022-07-23T15:44:55;4.15;;;3.20;;
41275;SDS011;27010;47.718;12.912;2022-07-23T15:47:58;3.72;;;3.33;;
41275;SDS011;27010;47.718;12.912;2022-07-23T15:51:00;4.05;;;3.60;;
41275;SDS011;27010;47.718;12.912;2022-07-23T15:54:03;7.60;;;3.75;;
41275;SDS011;27010;47.718;12.912;2022-07-23T15:57:06;5.32;;;4.28;;
41275;SDS011;27010;47.718;12.912;2022-07-23T16:00:09;5.75;;;4.20;;
41275;SDS011;27010;47.718;12.912;2022-07-23T16:03:11;6.22;;;4.35;;
41275;SDS011;27010;47.718;12.912;2022-07-23T16:06:16;4.07;;;3.60;;
41275;SDS011;27010;47.718;12.912;2022-07-23T16:09:19;4.40;;;3.70;;
41275;SDS011;27010;47.718;12.912;2022-07-23T16:12:21;5.47;;;4.03;;
41275;SDS011;27010;47.718;12.912;2022-07-23T16:15:23;4.47;;;4.07;;
41275;SDS011;27010;47.718;12.912;2022-07-23T16:18:25;4.75;;;4.00;;
41275;SDS011;27010;47.718;12.912;2022-07-23T16:21:27;4.93;;;4.38;;
41275;SDS011;27010;47.718;12.912;2022-07-23T16:24:29;4.57;;;3.65;;
41275;SDS011;27010;47.718;12.912;2022-07-23T16:27:32;4.20;;;3.80;;
41275;SDS011;27010;47.718;12.912;2022-07-23T16:30:34;5.68;;;4.10;;
41275;SDS011;27010;47.718;12.912;2022-07-23T16:33:37;5.07;;;3.88;;
41275;SDS011;27010;47.718;12.912;2022-07-23T16:36:39;7.28;;;3.70;;
41275;SDS011;27010;47.718;12.912;2022-07-23T16:39:42;4.65;;;4.25;;
41275;SDS011;27010;47.718;12.912;2022-07-23T16:42:45;5.35;;;3.95;;
41275;SDS011;27010;47.718;12.912;2022-07-23T16:45:47;5.03;;;3.70;;
41275;SDS011;27010;47.718;12.912;2022-07-23T16:48:49;4.35;;;3.80;;
41275;SDS011;27010;47.718;12.912;2022-07-23T16:51:51;4.95;;;4.15;;
41275;SDS011;27010;47.718;12.912;2022-07-23T16:54:53;5.60;;;3.95;;
41275;SDS011;27010;47.718;12.912;2022-07-23T16:57:55;4.40;;;4.00;;
41275;SDS011;27010;47.718;12.912;2022-07-23T17:00:59;5.88;;;4.63;;
41275;SDS011;27010;47.718;12.912;2022-07-23T17:04:01;5.60;;;4.15;;
41275;SDS011;27010;47.718;12.912;2022-07-23T17:07:04;4.53;;;4.13;;
41275;SDS011;27010;47.718;12.912;2022-07-23T17:10:08;4.70;;;4.25;;
41275;SDS011;27010;47.718;12.912;2022-07-23T17:13:12;4.55;;;4.15;;
41275;SDS011;27010;47.718;12.912;2022-07-23T17:16:14;4.57;;;4.18;;
41275;SDS011;27010;47.718;12.912;2022-07-23T17:19:16;4.80;;;4.10;;
41275;SDS011;27010;47.718;12.912;2022-07-23T17:22:18;6.20;;;4.63;;
41275;SDS011;27010;47.718;12.912;2022-07-23T17:25:21;8.07;;;4.10;;
41275;SDS011;27010;47.718;12.912;2022-07-23T17:28:25;5.50;;;3.75;;
41275;SDS011;27010;47.718;12.912;2022-07-23T17:31:28;6.40;;;3.97;;
41275;SDS011;27010;47.718;12.912;2022-07-23T17:34:30;6.20;;;4.35;;
41275;SDS011;27010;47.718;12.912;2022-07-23T17:37:33;6.35;;;4.43;;
41275;SDS011;27010;47.718;12.912;2022-07-23T17:40:35;4.43;;;4.03;;
41275;SDS011;27010;47.718;12.912;2022-07-23T17:43:38;6.10;;;4.40;;
41275;SDS011;27010;47.718;12.912;2022-07-23T17:46:39;6.10;;;3.97;;
41275;SDS011;27010;47.718;12.912;2022-07-23T17:49:42;4.13;;;3.80;;
41275;SDS011;27010;47.718;12.912;2022-07-23T17:52:48;4.13;;;3.58;;
41275;SDS011;27010;47.718;12.912;2022-07-23T17:55:51;4.53;;;3.90;;
41275;SDS011;27010;47.718;12.912;2022-07-23T17:58:54;4.25;;;3.85;;
41275;SDS011;27010;47.718;12.912;2022-07-23T18:01:57;4.88;;;3.97;;
41275;SDS011;27010;47.718;12.912;2022-07-23T18:04:59;4.57;;;4.18;;
41275;SDS011;27010;47.718;12.912;2022-07-23T18:08:01;6.93;;;4.28;;
41275;SDS011;27010;47.718;12.912;2022-07-23T18:11:04;4.22;;;3.83;;
41275;SDS011;27010;47.718;12.912;2022-07-23T18:14:07;5.50;;;4.45;;
41275;SDS011;27010;47.718;12.912;2022-07-23T18:17:10;6.32;;;4.30;;
41275;SDS011;27010;47.718;12.912;2022-07-23T18:20:13;5.68;;;5.00;;
41275;SDS011;27010;47.718;12.912;2022-07-23T18:23:15;5.35;;;4.10;;
41275;SDS011;27010;47.718;12.912;2022-07-23T18:26:17;7.18;;;4.10;;
41275;SDS011;27010;47.718;12.912;2022-07-23T18:29:20;6.90;;;4.10;;
41275;SDS011;27010;47.718;12.912;2022-07-23T18:32:22;4.60;;;4.10;;
41275;SDS011;27010;47.718;12.912;2022-07-23T18:35:25;4.45;;;4.05;;
41275;SDS011;27010;47.718;12.912;2022-07-23T18:38:28;5.35;;;4.30;;
41275;SDS011;27010;47.718;12.912;2022-07-23T18:41:34;5.32;;;4.28;;
41275;SDS011;27010;47.718;12.912;2022-07-23T18:44:37;6.45;;;4.18;;